Terminal Aerodrome Forecast
Issued by NWS Topeka, KS

Home | Current Version | Previous Version | Text Only | Print | Product List | Glossary Off
Versions: 1 2 3 4 5 6 7 8 9 10 11 12 13 14 15 16 17 18 19 20

000
FTUS43 KTOP 271300 AAA
TAFTOP
TAF AMD
KTOP 271320Z 2713/2812 01005KT P6SM BKN015
     FM271500 02006KT P6SM SCT020 BKN080
     FM271800 14008KT P6SM SCT080=

USA.gov is the U.S. government's official web portal to all federal, state and local government web resources and services.